createdAt,value
2023-11-09T00:03:09.359Z,97302.72
2023-11-09T00:08:11.803Z,97293.50
2023-11-09T00:13:13.677Z,97288.47
2023-11-09T00:18:22.967Z,97291.22
2023-11-09T00:23:25.139Z,97275.41
2023-11-09T00:28:27.045Z,97273.94
2023-11-09T00:33:29.055Z,97280.84
2023-11-09T00:38:30.903Z,97270.22
2023-11-09T00:43:34.076Z,97271.81
2023-11-09T00:48:35.966Z,97266.16
2023-11-09T00:53:38.551Z,97261.59
2023-11-09T00:58:40.434Z,97255.16
2023-11-09T01:03:42.361Z,97242.25
2023-11-09T01:08:44.205Z,97237.75
2023-11-09T01:13:46.019Z,97236.47
2023-11-09T01:18:51.547Z,97225.69
2023-11-09T01:23:53.433Z,97219.03
2023-11-09T01:28:55.356Z,97206.75
2023-11-09T01:34:04.734Z,97215.81
2023-11-09T01:39:13.789Z,97207.06
2023-11-09T01:44:16.341Z,97189.66
2023-11-09T01:49:18.353Z,97188.84
2023-11-09T01:54:20.599Z,97187.97
2023-11-09T01:59:23.007Z,97176.38
2023-11-09T02:04:26.174Z,97170.78
2023-11-09T02:09:28.709Z,97161.59
2023-11-09T02:14:30.863Z,97159.00
2023-11-09T02:19:33.006Z,97170.28
2023-11-09T02:24:35.902Z,97164.88
2023-11-09T02:29:40.603Z,97159.94
2023-11-09T02:34:42.460Z,97149.44
2023-11-09T02:39:44.329Z,97136.97
2023-11-09T02:44:46.172Z,97125.97
2023-11-09T02:49:48.028Z,97121.91
2023-11-09T02:54:49.870Z,97126.66
2023-11-09T02:59:51.687Z,97121.47
2023-11-09T03:04:53.641Z,97127.00
2023-11-09T03:09:56.215Z,97122.34
2023-11-09T03:14:58.086Z,97120.13
2023-11-09T03:19:59.934Z,97112.69
2023-11-09T03:25:02.051Z,97101.03
2023-11-09T03:30:04.268Z,97100.22
2023-11-09T03:35:06.276Z,97093.34
2023-11-09T03:40:09.578Z,97087.50
2023-11-09T03:45:12.038Z,97084.78
2023-11-09T03:50:14.092Z,97065.84
2023-11-09T03:55:16.310Z,97068.81
2023-11-09T04:00:19.859Z,97062.66
2023-11-09T04:05:23.852Z,97061.38
2023-11-09T04:10:25.978Z,97061.47
2023-11-09T04:15:27.804Z,97051.88
2023-11-09T04:20:29.760Z,97048.97
2023-11-09T04:25:31.678Z,97048.75
2023-11-09T04:30:33.617Z,97039.34
2023-11-09T04:35:36.227Z,97030.03
2023-11-09T04:40:38.065Z,97029.63
2023-11-09T04:45:43.712Z,97021.69
2023-11-09T04:50:50.209Z,97013.75
2023-11-09T04:55:55.141Z,97015.81
2023-11-09T05:01:15.679Z,97014.66
2023-11-09T05:06:35.917Z,97009.06
2023-11-09T05:11:38.993Z,97002.03
2023-11-09T05:16:40.863Z,97002.56
2023-11-09T05:21:42.845Z,96997.00
2023-11-09T05:26:44.852Z,96993.19
2023-11-09T05:31:46.727Z,96993.81
2023-11-09T05:36:48.564Z,96988.13
2023-11-09T05:41:52.810Z,96978.78
2023-11-09T05:46:56.825Z,96971.09
2023-11-09T05:51:58.714Z,96974.91
2023-11-09T05:57:00.579Z,96967.53
2023-11-09T06:02:03.184Z,96963.81
2023-11-09T06:07:05.417Z,96953.16
2023-11-09T06:12:09.444Z,96943.13
2023-11-09T06:17:12.250Z,96933.91
2023-11-09T06:22:14.027Z,96918.19
2023-11-09T06:27:18.354Z,96910.56
2023-11-09T06:32:20.799Z,96906.63
2023-11-09T06:37:23.910Z,96893.09
2023-11-09T06:42:26.881Z,96891.09
2023-11-09T06:47:28.554Z,96888.94
2023-11-09T06:52:30.257Z,96886.97
2023-11-09T06:57:31.974Z,96890.00
2023-11-09T07:02:34.330Z,96895.13
2023-11-09T07:07:36.170Z,96887.28
2023-11-09T07:12:41.826Z,96890.84
2023-11-09T07:17:44.706Z,96889.19
2023-11-09T07:22:49.364Z,96887.63
2023-11-09T07:27:51.053Z,96884.00
2023-11-09T07:32:52.772Z,96885.00
2023-11-09T07:37:54.748Z,96890.44
2023-11-09T07:42:58.506Z,96895.72
2023-11-09T07:48:00.447Z,96902.16
2023-11-09T07:53:02.281Z,96899.25
2023-11-09T07:58:05.088Z,96899.09
2023-11-09T08:03:07.392Z,96897.56
2023-11-09T08:08:11.438Z,96892.00
2023-11-09T08:13:13.361Z,96896.00
2023-11-09T08:18:16.066Z,96884.88
2023-11-09T08:23:17.817Z,96893.34
2023-11-09T08:28:19.545Z,96892.56
2023-11-09T08:33:24.696Z,96880.00
2023-11-09T08:38:26.401Z,96883.06
2023-11-09T08:43:28.239Z,96884.28
2023-11-09T08:48:31.092Z,96880.84
2023-11-09T08:53:32.856Z,96882.06
2023-11-09T08:58:39.670Z,96880.53
2023-11-09T09:03:42.471Z,96879.31
2023-11-09T09:08:47.745Z,96875.16
2023-11-09T09:13:50.034Z,96869.44
2023-11-09T09:18:53.182Z,96875.66
2023-11-09T09:23:54.854Z,96871.50
2023-11-09T09:28:57.671Z,96865.50
2023-11-09T09:34:09.382Z,96882.88
2023-11-09T09:39:15.387Z,96878.13
2023-11-09T09:44:21.019Z,96888.69
2023-11-09T09:49:23.729Z,96890.50
2023-11-09T09:54:25.979Z,96880.47
2023-11-09T09:59:28.804Z,96887.78
2023-11-09T10:04:30.956Z,96886.81
2023-11-09T10:09:33.112Z,96887.50
2023-11-09T10:14:35.831Z,96872.66
2023-11-09T10:19:43.954Z,96866.28
2023-11-09T10:24:46.602Z,96877.53
2023-11-09T10:29:48.389Z,96881.19
2023-11-09T10:34:53.159Z,96880.28
2023-11-09T10:39:54.885Z,96879.66
2023-11-09T10:44:58.681Z,96864.88
2023-11-09T10:50:08.771Z,96862.47
2023-11-09T10:55:17.187Z,96844.41
2023-11-09T11:00:32.488Z,96840.41
2023-11-09T11:05:41.465Z,96841.81
2023-11-09T11:10:52.576Z,96840.84
2023-11-09T11:16:21.578Z,96850.03
2023-11-09T11:21:54.066Z,96847.25
2023-11-09T11:27:05.938Z,96838.84
2023-11-09T11:32:17.675Z,96835.84
2023-11-09T11:37:32.900Z,96832.03
2023-11-09T11:42:35.868Z,96828.88
2023-11-09T11:47:37.843Z,96825.44
2023-11-09T11:52:39.537Z,96833.50
2023-11-09T11:58:05.744Z,96824.47
2023-11-09T12:03:11.276Z,96829.06
2023-11-09T12:08:14.121Z,96822.47
2023-11-09T12:13:16.094Z,96823.28
2023-11-09T12:18:18.473Z,96808.66
2023-11-09T12:23:20.345Z,96803.03
2023-11-09T12:28:23.794Z,96790.84
2023-11-09T12:33:25.823Z,96795.03
2023-11-09T12:38:28.201Z,96793.25
2023-11-09T12:43:48.288Z,96789.44
2023-11-09T12:48:53.542Z,96789.66
2023-11-09T12:53:58.815Z,96784.44
2023-11-09T12:59:01.264Z,96779.63
2023-11-09T13:04:03.455Z,96774.84
2023-11-09T13:09:31.372Z,96768.03
2023-11-09T13:14:38.332Z,96766.44
2023-11-09T13:19:46.411Z,96772.03
2023-11-09T13:24:54.807Z,96776.06
2023-11-09T13:29:57.370Z,96771.66
2023-11-09T13:35:17.881Z,96770.03
2023-11-09T13:40:22.631Z,96762.44
2023-11-09T13:45:35.612Z,96765.84
2023-11-09T13:50:38.763Z,96766.06
2023-11-09T13:56:00.503Z,96760.03
2023-11-09T14:01:02.405Z,96759.41
2023-11-09T14:06:08.652Z,96757.66
2023-11-09T14:11:12.351Z,96748.66
2023-11-09T14:16:21.247Z,96740.25
2023-11-09T14:21:33.959Z,96732.84
2023-11-09T14:26:37.491Z,96734.44
2023-11-09T14:31:40.238Z,96735.63
2023-11-09T14:36:58.731Z,96736.41
2023-11-09T14:42:08.560Z,96720.41
2023-11-09T14:47:12.109Z,96718.41
2023-11-09T14:52:22.330Z,96721.00
2023-11-09T14:57:24.315Z,96717.25
2023-11-09T15:02:26.262Z,96710.22
2023-11-09T15:07:28.199Z,96696.84
2023-11-09T15:12:34.936Z,96713.44
2023-11-09T15:17:40.138Z,96710.84
2023-11-09T15:22:42.162Z,96712.47
2023-11-09T15:27:44.641Z,96706.47
2023-11-09T15:32:46.536Z,96715.22
2023-11-09T15:37:50.499Z,96708.66
2023-11-09T15:42:55.892Z,96712.25
2023-11-09T15:47:58.074Z,96700.25
2023-11-09T15:53:00.059Z,96704.44
2023-11-09T15:58:05.212Z,96698.84
2023-11-09T16:03:07.644Z,96685.66
2023-11-09T16:08:11.794Z,96676.25
2023-11-09T16:13:13.616Z,96680.25
2023-11-09T16:18:15.693Z,96683.44
2023-11-09T16:23:18.756Z,96682.06
2023-11-09T16:28:24.172Z,96682.06
2023-11-09T16:33:26.148Z,96675.25
2023-11-09T16:38:28.078Z,96683.25
2023-11-09T16:43:30.125Z,96678.84
2023-11-09T16:48:34.830Z,96680.84
2023-11-09T16:53:36.915Z,96677.69
2023-11-09T16:58:38.842Z,96682.25
2023-11-09T17:03:41.108Z,96680.84
2023-11-09T17:08:43.007Z,96685.84
2023-11-09T17:13:44.868Z,96680.06
2023-11-09T17:18:47.247Z,96678.84
2023-11-09T17:23:49.108Z,96681.44
2023-11-09T17:28:50.999Z,96679.66
2023-11-09T17:33:53.031Z,96687.25
2023-11-09T17:38:55.088Z,96678.25
2023-11-09T17:43:56.972Z,96678.66
2023-11-09T17:48:58.983Z,96674.25
2023-11-09T17:54:01.480Z,96670.06
2023-11-09T17:59:03.905Z,96675.47
2023-11-09T18:04:11.070Z,96658.47
2023-11-09T18:09:16.230Z,96650.50
2023-11-09T18:14:18.181Z,96648.06
2023-11-09T18:19:20.163Z,96646.50
2023-11-09T18:24:23.467Z,96653.66
2023-11-09T18:29:28.008Z,96653.66
2023-11-09T18:34:30.420Z,96663.06
2023-11-09T18:39:32.648Z,96655.88
2023-11-09T18:44:34.560Z,96653.28
2023-11-09T18:54:41.168Z,96645.88
2023-11-09T18:59:43.546Z,96650.09
2023-11-09T19:04:46.467Z,96653.88
2023-11-09T19:09:50.102Z,96646.69
2023-11-09T19:14:53.855Z,96641.69
2023-11-09T19:19:55.771Z,96643.09
2023-11-09T19:24:57.689Z,96640.28
2023-11-09T19:29:59.778Z,96642.47
2023-11-09T19:35:01.797Z,96637.06
2023-11-09T19:40:04.652Z,96633.88
2023-11-09T19:45:07.188Z,96630.66
2023-11-09T19:50:12.194Z,96629.28
2023-11-09T19:55:14.147Z,96634.28
2023-11-09T20:00:17.640Z,96637.88
2023-11-09T20:05:19.753Z,96637.03
2023-11-09T20:10:21.814Z,96636.47
2023-11-09T20:15:28.374Z,96622.66
2023-11-09T20:20:30.872Z,96618.25
2023-11-09T20:25:32.923Z,96615.44
2023-11-09T20:30:34.924Z,96622.03
2023-11-09T20:35:37.468Z,96615.25
2023-11-09T20:40:39.848Z,96604.25
2023-11-09T20:45:42.782Z,96606.06
2023-11-09T20:50:44.713Z,96606.88
2023-11-09T20:55:46.597Z,96601.69
2023-11-09T21:00:49.446Z,96580.50
2023-11-09T21:05:51.325Z,96582.31
2023-11-09T21:10:53.203Z,96589.28
2023-11-09T21:15:55.049Z,96574.72
2023-11-09T21:20:56.901Z,96582.31
2023-11-09T21:25:59.368Z,96577.31
2023-11-09T21:31:01.199Z,96578.09
2023-11-09T21:36:03.519Z,96576.31
2023-11-09T21:41:05.589Z,96575.91
2023-11-09T21:46:09.664Z,96572.91
2023-11-09T21:51:11.721Z,96572.34
2023-11-09T21:56:13.621Z,96570.56
2023-11-09T22:01:15.596Z,96572.34
2023-11-09T22:06:17.526Z,96560.38
2023-11-09T22:11:19.678Z,96560.56
2023-11-09T22:16:21.936Z,96551.38
2023-11-09T22:21:25.723Z,96549.38
2023-11-09T22:26:27.635Z,96542.41
2023-11-09T22:31:29.494Z,96531.59
2023-11-09T22:36:31.342Z,96523.41
2023-11-09T22:41:33.233Z,96522.00
2023-11-09T22:46:42.412Z,96522.56
2023-11-09T22:51:44.741Z,96511.97
2023-11-09T22:56:46.741Z,96513.78
2023-11-09T23:01:48.731Z,96510.94
2023-11-09T23:06:50.671Z,96518.31
2023-11-09T23:11:52.969Z,96517.09
2023-11-09T23:16:54.833Z,96512.66
2023-11-09T23:21:58.651Z,96508.84
2023-11-09T23:27:01.292Z,96508.31
2023-11-09T23:32:04.535Z,96498.94
2023-11-09T23:37:06.347Z,96495.28
2023-11-09T23:42:08.251Z,96489.75
2023-11-09T23:47:11.912Z,96480.53
2023-11-09T23:52:16.070Z,96472.34
2023-11-09T23:57:18.054Z,96460.59
